Terminal Aerodrome Forecast
Issued by NWS Boston, MA

Home | Current Version | Previous Version | Text Only | Print | Product List | Glossary On
Versions: 1 2 3 4 5 6 7 8 9 10 11 12 13 14 15 16 17 18 19 20 21 22 23 24 25 26 27 28 29 30 31 32 33 34
000
FTUS41 KBOX 242339
TAFORH
TAF
KORH 242339Z 2500/2524 21008KT P6SM SCT200
     FM250200 21009KT 2SM BR BKN120
     FM250400 21009KT 1 1/2SM BR BKN008
     FM251600 18009KT P6SM VCSH BKN010
     FM251800 17012G25KT P6SM VCSH BKN025
     FM252200 17009KT 4SM -SHRA BKN015=

USA.gov is the U.S. government's official web portal to all federal, state and local government web resources and services.